Lakeway's Hourly Summary for Wednesday, May 16, 2018
Hour Temp
(f)
RH
(%)
Solar Rad.
(MJ/m2)
Rainfall
(in)
Wind
(mph)
5/16/2018 12:00 AM 72 78 0 0 2.48
5/16/2018 1:00 AM 72 77 0 0 2.48
5/16/2018 2:00 AM 70 77 0 0 1.74
5/16/2018 3:00 AM 70 75 0 0 1.74
5/16/2018 4:00 AM 68 87 0 0 0.37
5/16/2018 5:00 AM 67 87 0 0 0.34
5/16/2018 6:00 AM 65 97 0.01 0 0.05
5/16/2018 7:00 AM 65 97 0.09 0 0.01
5/16/2018 8:00 AM 69 97 0.34 0 0.23
5/16/2018 9:00 AM 75 78 1.72 0 0.87
5/16/2018 10:00 AM 79 67 2.43 0 0.87
5/16/2018 11:00 AM 84 54 2.96 0 0.8
5/16/2018 12:00 PM 87 51 3.32 0 1.06
5/16/2018 1:00 PM 89 33 3.44 0 1.28
5/16/2018 2:00 PM 91 32 3.44 0 1.28
5/16/2018 3:00 PM 93 27 3.33 0 1.25
5/16/2018 4:00 PM 94 27 2.99 0 1.25
5/16/2018 5:00 PM 94 26 2.48 0 1.14
5/16/2018 6:00 PM 94 26 1.84 0 0.65
5/16/2018 7:00 PM 94 27 1.12 0 0.4
5/16/2018 8:00 PM 91 47 0.34 0 0.68
5/16/2018 9:00 PM 86 51 0.01 0 0.68
5/16/2018 10:00 PM 83 56 0 0 0.61
5/16/2018 11:00 PM 81 60 0 0 0.1
Data Summary 80 59 29.86 0.00 0.93